createdAt,value
2024-01-25T00:00:50.865Z,72.36
2024-01-25T00:01:50.924Z,71.46
2024-01-25T00:02:50.735Z,71.45
2024-01-25T00:03:50.799Z,70.13
2024-01-25T00:04:50.916Z,71.90
2024-01-25T00:05:50.767Z,71.15
2024-01-25T00:06:50.954Z,70.66
2024-01-25T00:07:50.916Z,70.05
2024-01-25T00:08:50.618Z,69.38
2024-01-25T00:09:50.687Z,72.06
2024-01-25T00:10:50.595Z,70.87
2024-01-25T00:11:50.601Z,70.01
2024-01-25T00:12:50.710Z,66.47
2024-01-25T00:13:50.570Z,66.26
2024-01-25T00:14:50.515Z,68.55
2024-01-25T00:15:50.644Z,68.76
2024-01-25T00:16:50.501Z,70.33
2024-01-25T00:17:50.607Z,72.56
2024-01-25T00:18:50.577Z,72.85
2024-01-25T00:19:50.546Z,71.99
2024-01-25T00:20:50.441Z,73.45
2024-01-25T00:21:50.450Z,70.98
2024-01-25T00:22:50.449Z,71.21
2024-01-25T00:23:50.380Z,70.99
2024-01-25T00:24:50.417Z,72.22
2024-01-25T00:25:50.363Z,71.91
2024-01-25T00:26:50.341Z,69.40
2024-01-25T00:27:50.378Z,70.28
2024-01-25T00:28:50.330Z,70.07
2024-01-25T00:29:50.265Z,70.84
2024-01-25T00:30:50.341Z,70.90
2024-01-25T00:31:50.262Z,71.47
2024-01-25T00:32:50.280Z,70.09
2024-01-25T00:33:50.254Z,70.71
2024-01-25T00:34:50.263Z,72.68
2024-01-25T00:35:50.191Z,73.39
2024-01-25T00:36:50.237Z,71.13
2024-01-25T00:37:50.152Z,71.41
2024-01-25T00:38:50.118Z,70.97
2024-01-25T00:39:50.220Z,71.13
2024-01-25T00:40:50.107Z,70.59
2024-01-25T00:41:50.083Z,70.95
2024-01-25T00:42:50.206Z,70.87
2024-01-25T00:43:50.052Z,70.95
2024-01-25T00:44:50.062Z,71.65
2024-01-25T00:45:50.041Z,68.03
2024-01-25T00:46:49.983Z,68.92
2024-01-25T00:47:50.061Z,68.38
2024-01-25T00:48:50.244Z,69.27
2024-01-25T00:49:50.071Z,73.44
2024-01-25T00:50:49.976Z,71.48
2024-01-25T00:51:49.976Z,69.48
2024-01-25T00:52:49.893Z,68.78
2024-01-25T00:53:49.903Z,72.74
2024-01-25T00:54:49.902Z,69.58
2024-01-25T00:55:49.892Z,70.00
2024-01-25T00:56:49.813Z,71.42
2024-01-25T00:57:49.812Z,71.56
2024-01-25T00:58:49.808Z,72.22
2024-01-25T00:59:49.766Z,73.14
2024-01-25T01:00:49.910Z,72.23
2024-01-25T01:01:49.876Z,71.78
2024-01-25T01:02:49.787Z,70.45
2024-01-25T01:03:49.794Z,70.94
2024-01-25T01:04:49.901Z,69.12
2024-01-25T01:05:49.802Z,73.88
2024-01-25T01:06:49.866Z,71.22
2024-01-25T01:07:49.745Z,64.09
2024-01-25T01:08:49.625Z,71.51
2024-01-25T01:09:49.628Z,69.69
2024-01-25T01:10:49.572Z,68.87
2024-01-25T01:11:49.547Z,72.00
2024-01-25T01:12:49.724Z,71.45
2024-01-25T01:13:49.533Z,69.53
2024-01-25T01:14:49.518Z,70.11
2024-01-25T01:15:49.528Z,71.62
2024-01-25T01:16:49.489Z,70.33
2024-01-25T01:17:49.604Z,72.37
2024-01-25T01:18:49.618Z,72.45
2024-01-25T01:19:49.578Z,70.47
2024-01-25T01:20:49.417Z,70.47
2024-01-25T01:21:49.428Z,69.88
2024-01-25T01:22:49.387Z,72.27
2024-01-25T01:23:49.399Z,69.80
2024-01-25T01:24:49.354Z,68.59
2024-01-25T01:25:49.333Z,72.69
2024-01-25T01:26:49.302Z,69.33
2024-01-25T01:27:49.340Z,72.85
2024-01-25T01:28:49.301Z,73.23
2024-01-25T01:29:49.258Z,70.37
2024-01-25T01:30:49.288Z,67.71
2024-01-25T01:31:49.216Z,70.21
2024-01-25T01:32:49.325Z,68.50
2024-01-25T01:33:49.312Z,70.41
2024-01-25T01:34:49.214Z,72.39
2024-01-25T01:35:49.122Z,67.56
2024-01-25T01:36:49.164Z,67.75
2024-01-25T01:37:49.104Z,67.71
2024-01-25T01:38:49.090Z,69.25
2024-01-25T01:39:49.164Z,69.98
2024-01-25T01:40:49.068Z,73.23
2024-01-25T01:41:49.028Z,72.37
2024-01-25T01:42:49.049Z,70.16
2024-01-25T01:43:48.984Z,72.55
2024-01-25T01:44:48.985Z,72.00
2024-01-25T01:45:49.052Z,71.34
2024-01-25T01:46:48.939Z,70.48
2024-01-25T01:47:49.137Z,72.91
2024-01-25T01:48:49.144Z,69.62
2024-01-25T01:49:49.201Z,71.51
2024-01-25T01:50:49.122Z,72.45
2024-01-25T01:51:48.925Z,72.30
2024-01-25T01:52:48.884Z,72.74
2024-01-25T01:53:48.831Z,71.73
2024-01-25T01:54:48.848Z,72.63
2024-01-25T01:55:48.781Z,70.61
2024-01-25T01:56:48.945Z,72.93
2024-01-25T01:57:48.808Z,71.82
2024-01-25T01:58:48.731Z,74.39
2024-01-25T01:59:48.722Z,72.71
2024-01-25T02:00:48.743Z,73.00
2024-01-25T02:01:48.875Z,73.39
2024-01-25T02:02:48.652Z,73.33
2024-01-25T02:03:48.731Z,66.41
2024-01-25T02:04:48.699Z,74.36
2024-01-25T02:05:48.626Z,71.59
2024-01-25T02:06:48.781Z,71.03
2024-01-25T02:07:48.615Z,73.06
2024-01-25T02:08:48.572Z,73.12
2024-01-25T02:09:48.556Z,70.62
2024-01-25T02:10:48.528Z,70.63
2024-01-25T02:11:48.490Z,73.23
2024-01-25T02:12:48.562Z,71.62
2024-01-25T02:13:48.458Z,70.62
2024-01-25T02:14:48.444Z,71.98
2024-01-25T02:15:48.478Z,73.48
2024-01-25T02:16:48.473Z,71.34
2024-01-25T02:17:48.422Z,72.50
2024-01-25T02:18:48.500Z,71.59
2024-01-25T02:19:48.456Z,71.98
2024-01-25T02:20:48.327Z,69.62
2024-01-25T02:21:48.357Z,72.19
2024-01-25T02:22:48.314Z,70.28
2024-01-25T02:23:48.312Z,70.86
2024-01-25T02:24:48.360Z,70.75
2024-01-25T02:25:48.235Z,71.45
2024-01-25T02:26:48.214Z,71.29
2024-01-25T02:27:48.228Z,73.20
2024-01-25T02:28:48.201Z,68.50
2024-01-25T02:29:48.346Z,73.59
2024-01-25T02:30:48.185Z,72.62
2024-01-25T02:31:48.151Z,71.19
2024-01-25T02:32:48.193Z,71.45
2024-01-25T02:33:48.212Z,71.83
2024-01-25T02:34:48.231Z,72.67
2024-01-25T02:35:48.091Z,70.71
2024-01-25T02:36:48.085Z,70.46
2024-01-25T02:37:48.017Z,72.66
2024-01-25T02:38:48.026Z,71.28
2024-01-25T02:39:48.062Z,69.65
2024-01-25T02:40:48.061Z,70.90
2024-01-25T02:41:47.974Z,73.37
2024-01-25T02:42:47.983Z,72.35
2024-01-25T02:43:47.913Z,71.39
2024-01-25T02:44:47.911Z,73.36
2024-01-25T02:45:47.932Z,69.07
2024-01-25T02:46:47.888Z,69.83
2024-01-25T02:47:47.977Z,71.53
2024-01-25T02:48:47.926Z,74.10
2024-01-25T02:49:47.958Z,71.45
2024-01-25T02:50:47.795Z,69.94
2024-01-25T02:51:47.832Z,70.74
2024-01-25T02:52:47.772Z,71.31
2024-01-25T02:53:47.771Z,69.96
2024-01-25T02:54:47.804Z,72.39
2024-01-25T02:55:47.733Z,71.46
2024-01-25T02:56:47.762Z,73.15
2024-01-25T02:57:47.708Z,72.58
2024-01-25T02:58:47.705Z,69.91
2024-01-25T02:59:47.695Z,71.22
2024-01-25T03:00:47.744Z,70.81
2024-01-25T03:01:47.695Z,73.22
2024-01-25T03:02:47.778Z,73.36
2024-01-25T03:03:47.626Z,70.75
2024-01-25T03:04:47.695Z,73.54
2024-01-25T03:05:47.596Z,70.12
2024-01-25T03:06:47.856Z,73.76
2024-01-25T03:07:47.605Z,73.48
2024-01-25T03:08:47.490Z,74.56
2024-01-25T03:09:47.523Z,70.65
2024-01-25T03:10:47.446Z,71.51
2024-01-25T03:11:47.442Z,69.29
2024-01-25T03:12:47.445Z,69.77
2024-01-25T03:13:47.450Z,70.92
2024-01-25T03:14:47.394Z,72.76
2024-01-25T03:15:47.426Z,73.55
2024-01-25T03:16:47.339Z,73.12
2024-01-25T03:17:47.352Z,74.25
2024-01-25T03:18:47.496Z,72.33
2024-01-25T03:19:47.530Z,72.59
2024-01-25T03:20:47.274Z,72.36
2024-01-25T03:21:47.332Z,72.37
2024-01-25T03:22:47.242Z,73.44
2024-01-25T03:23:47.220Z,73.45
2024-01-25T03:24:47.267Z,73.55
2024-01-25T03:25:47.196Z,75.14
2024-01-25T03:26:47.190Z,73.71
2024-01-25T03:27:47.213Z,73.24
2024-01-25T03:28:47.150Z,72.02
2024-01-25T03:29:47.264Z,71.22
2024-01-25T03:30:47.177Z,74.22
2024-01-25T03:31:47.084Z,74.27
2024-01-25T03:32:47.154Z,72.96
2024-01-25T03:33:47.135Z,73.54
2024-01-25T03:34:47.199Z,74.16
2024-01-25T03:35:47.052Z,72.85
2024-01-25T03:36:47.023Z,75.81
2024-01-25T03:37:46.968Z,72.61
2024-01-25T03:38:46.960Z,71.33
2024-01-25T03:39:47.041Z,73.92
2024-01-25T03:40:46.918Z,72.89
2024-01-25T03:41:46.915Z,74.10
2024-01-25T03:43:02.326Z,73.84
2024-01-25T03:43:48.958Z,71.62
2024-01-25T03:44:46.849Z,74.50
2024-01-25T03:45:47.034Z,72.42
2024-01-25T03:46:46.818Z,73.38
2024-01-25T03:47:46.830Z,72.14
2024-01-25T03:48:46.835Z,75.14
2024-01-25T03:49:46.918Z,72.79
2024-01-25T03:50:46.756Z,71.32
2024-01-25T03:51:46.821Z,72.15
2024-01-25T03:52:46.706Z,72.27
2024-01-25T03:53:46.691Z,73.97
2024-01-25T03:54:46.702Z,73.29
2024-01-25T03:55:46.650Z,74.17
2024-01-25T03:56:46.646Z,72.97
2024-01-25T03:57:46.822Z,72.17
2024-01-25T03:58:46.582Z,73.69
2024-01-25T03:59:46.583Z,72.92
2024-01-25T04:00:46.689Z,73.13
2024-01-25T04:01:46.745Z,72.87
2024-01-25T04:02:46.553Z,71.25
2024-01-25T04:03:46.572Z,71.22
2024-01-25T04:04:46.522Z,73.77
2024-01-25T04:05:46.529Z,73.97
2024-01-25T04:06:46.539Z,75.00
2024-01-25T04:07:46.436Z,72.75
2024-01-25T04:08:46.505Z,73.64
2024-01-25T04:09:46.470Z,73.88
2024-01-25T04:10:46.388Z,74.15
2024-01-25T04:11:46.393Z,75.44
2024-01-25T04:12:46.385Z,75.51
2024-01-25T04:13:46.349Z,75.05
2024-01-25T04:14:46.295Z,73.67
2024-01-25T04:15:46.370Z,72.50
2024-01-25T04:16:46.272Z,73.02
2024-01-25T04:17:46.299Z,73.31
2024-01-25T04:18:46.384Z,75.11
2024-01-25T04:19:46.434Z,73.85
2024-01-25T04:20:46.269Z,76.81
2024-01-25T04:21:46.211Z,73.92
2024-01-25T04:22:46.172Z,74.53
2024-01-25T04:23:46.152Z,75.40
2024-01-25T04:24:46.455Z,75.89
2024-01-25T04:25:46.123Z,74.63
2024-01-25T04:26:46.102Z,75.78
2024-01-25T04:27:46.094Z,75.53
2024-01-25T04:28:46.058Z,73.90
2024-01-25T04:29:47.041Z,73.90
2024-01-25T04:30:46.075Z,75.94
2024-01-25T04:31:46.001Z,74.27
2024-01-25T04:32:46.057Z,74.73
2024-01-25T04:33:48.734Z,74.42
2024-01-25T04:34:46.046Z,75.66
2024-01-25T04:35:45.975Z,72.30
2024-01-25T04:36:45.943Z,72.64
2024-01-25T04:37:45.919Z,74.10
2024-01-25T04:38:45.884Z,72.81
2024-01-25T04:39:45.910Z,75.02
2024-01-25T04:40:45.883Z,71.66
2024-01-25T04:41:45.838Z,74.47
2024-01-25T04:42:45.846Z,74.52
2024-01-25T04:43:45.771Z,76.41
2024-01-25T04:44:45.801Z,75.99
2024-01-25T04:45:45.808Z,73.84
2024-01-25T04:46:45.903Z,74.43
2024-01-25T04:47:45.751Z,74.43
2024-01-25T04:48:45.840Z,73.96
2024-01-25T04:49:45.828Z,74.11
2024-01-25T04:50:45.662Z,74.05
2024-01-25T04:51:45.722Z,74.97
2024-01-25T04:52:45.614Z,72.82
2024-01-25T04:53:45.624Z,74.90
2024-01-25T04:54:45.602Z,75.74
2024-01-25T04:55:45.584Z,76.04
2024-01-25T04:56:45.575Z,75.06
2024-01-25T04:57:45.668Z,73.92
2024-01-25T04:58:45.521Z,73.84
2024-01-25T04:59:45.515Z,75.44
2024-01-25T05:00:45.561Z,73.16
2024-01-25T05:01:45.543Z,74.84
2024-01-25T05:02:45.464Z,74.75
2024-01-25T05:03:45.502Z,75.02
2024-01-25T05:04:46.486Z,72.42
2024-01-25T05:05:46.400Z,75.65
2024-01-25T05:06:45.398Z,75.44
2024-01-25T05:07:45.476Z,74.28
2024-01-25T05:08:45.445Z,74.82
2024-01-25T05:09:45.481Z,74.29
2024-01-25T05:10:45.313Z,74.63
2024-01-25T05:11:45.296Z,74.59
2024-01-25T05:12:45.459Z,72.40
2024-01-25T05:13:45.299Z,73.81
2024-01-25T05:14:45.250Z,73.69
2024-01-25T05:15:45.286Z,75.12
2024-01-25T05:16:45.236Z,75.99
2024-01-25T05:17:45.230Z,76.49
2024-01-25T05:18:45.411Z,74.84
2024-01-25T05:19:45.356Z,73.54
2024-01-25T05:20:45.137Z,74.36
2024-01-25T05:21:45.203Z,75.58
2024-01-25T05:22:45.117Z,74.22
2024-01-25T05:23:45.130Z,72.28
2024-01-25T05:24:45.085Z,74.26
2024-01-25T05:25:45.065Z,74.66
2024-01-25T05:26:45.036Z,76.14
2024-01-25T05:27:45.071Z,74.14
2024-01-25T05:28:45.008Z,72.33
2024-01-25T05:29:45.006Z,73.69
2024-01-25T05:30:45.025Z,74.38
2024-01-25T05:31:45.042Z,76.70
2024-01-25T05:32:45.025Z,75.73
2024-01-25T05:33:45.007Z,76.18
2024-01-25T05:34:45.056Z,75.78
2024-01-25T05:35:44.927Z,75.39
2024-01-25T05:36:44.857Z,75.47
2024-01-25T05:37:44.855Z,74.35
2024-01-25T05:38:44.827Z,75.24
2024-01-25T05:39:44.829Z,74.11
2024-01-25T05:40:44.761Z,74.47
2024-01-25T05:41:44.767Z,74.25
2024-01-25T05:42:44.775Z,73.81
2024-01-25T05:43:44.740Z,73.10
2024-01-25T05:44:44.730Z,74.02
2024-01-25T05:45:44.741Z,76.06
2024-01-25T05:46:44.700Z,75.71
2024-01-25T05:47:44.775Z,75.44
2024-01-25T05:48:44.885Z,75.54
2024-01-25T05:49:44.695Z,73.98
2024-01-25T05:50:44.604Z,75.65
2024-01-25T05:51:44.591Z,76.85
2024-01-25T05:52:44.593Z,76.46
2024-01-25T05:53:44.543Z,75.33
2024-01-25T05:54:44.607Z,75.73
2024-01-25T05:55:44.641Z,75.40
2024-01-25T05:56:44.475Z,75.42
2024-01-25T05:57:44.504Z,75.51
2024-01-25T05:58:44.459Z,75.51
2024-01-25T05:59:44.433Z,76.43
2024-01-25T06:00:44.546Z,75.57
2024-01-25T06:01:44.489Z,76.57
2024-01-25T06:02:44.384Z,74.55
2024-01-25T06:03:44.442Z,72.71
2024-01-25T06:04:44.568Z,74.25
2024-01-25T06:05:44.425Z,75.06
2024-01-25T06:06:44.433Z,75.70
2024-01-25T06:07:44.481Z,74.97
2024-01-25T06:08:49.318Z,74.66
2024-01-25T06:09:45.422Z,75.31
2024-01-25T06:10:44.232Z,74.98
2024-01-25T06:11:44.215Z,74.67
2024-01-25T06:12:44.305Z,74.48
2024-01-25T06:13:44.232Z,75.88
2024-01-25T06:14:44.197Z,73.18
2024-01-25T06:15:44.211Z,74.36
2024-01-25T06:16:44.127Z,75.28
2024-01-25T06:17:44.248Z,75.74
2024-01-25T06:18:44.185Z,76.13
2024-01-25T06:19:44.433Z,75.01
2024-01-25T06:20:44.087Z,73.18
2024-01-25T06:21:44.077Z,74.76
2024-01-25T06:22:44.022Z,76.70
2024-01-25T06:23:43.992Z,74.71
2024-01-25T06:24:44.015Z,75.41
2024-01-25T06:25:43.999Z,75.39
2024-01-25T06:26:43.938Z,74.91
2024-01-25T06:27:43.993Z,75.32
2024-01-25T06:28:43.903Z,75.52
2024-01-25T06:29:43.905Z,75.05
2024-01-25T06:30:43.985Z,75.65
2024-01-25T06:31:43.869Z,74.82
2024-01-25T06:32:43.856Z,74.58
2024-01-25T06:33:43.958Z,74.00
2024-01-25T06:34:43.869Z,74.16
2024-01-25T06:35:43.875Z,76.38
2024-01-25T06:36:43.866Z,75.60
2024-01-25T06:37:43.784Z,76.18
2024-01-25T06:38:43.731Z,74.91
2024-01-25T06:39:43.773Z,75.86
2024-01-25T06:40:43.691Z,74.01
2024-01-25T06:41:43.724Z,73.88
2024-01-25T06:42:43.699Z,73.73
2024-01-25T06:43:43.637Z,74.31
2024-01-25T06:44:43.605Z,74.16
2024-01-25T06:45:43.636Z,74.73
2024-01-25T06:46:43.578Z,76.11
2024-01-25T06:47:43.636Z,74.02
2024-01-25T06:48:43.676Z,75.25
2024-01-25T06:49:43.598Z,74.13
2024-01-25T06:50:43.627Z,75.53
2024-01-25T06:51:43.516Z,75.66
2024-01-25T06:52:43.483Z,73.74
2024-01-25T06:53:43.442Z,75.88
2024-01-25T06:54:43.503Z,76.45
2024-01-25T06:55:43.408Z,75.42
2024-01-25T06:56:43.406Z,75.49
2024-01-25T06:57:43.945Z,76.58
2024-01-25T06:58:43.398Z,74.46
2024-01-25T06:59:43.347Z,75.82
2024-01-25T07:00:43.447Z,75.31
2024-01-25T07:01:43.441Z,75.07
2024-01-25T07:02:43.364Z,73.90
2024-01-25T07:03:43.395Z,75.52
2024-01-25T07:04:43.314Z,72.79
2024-01-25T07:05:43.227Z,76.34
2024-01-25T07:06:43.372Z,74.59
2024-01-25T07:07:43.204Z,75.99
2024-01-25T07:08:43.180Z,74.17
2024-01-25T07:09:43.222Z,75.80
2024-01-25T07:10:43.142Z,75.29
2024-01-25T07:11:43.140Z,74.39
2024-01-25T07:12:43.143Z,73.31
2024-01-25T07:13:43.085Z,74.76
2024-01-25T07:14:43.105Z,75.05
2024-01-25T07:15:43.072Z,75.95
2024-01-25T07:16:43.049Z,74.55
2024-01-25T07:17:43.023Z,74.46
2024-01-25T07:18:43.140Z,75.32
2024-01-25T07:19:43.103Z,74.82
2024-01-25T07:20:43.218Z,76.85
2024-01-25T07:21:42.977Z,74.87
2024-01-25T07:22:42.908Z,77.85
2024-01-25T07:23:42.894Z,76.25
2024-01-25T07:24:42.911Z,75.08
2024-01-25T07:25:42.921Z,74.31
2024-01-25T07:26:42.837Z,75.08
2024-01-25T07:27:42.859Z,74.93
2024-01-25T07:28:42.809Z,76.00
2024-01-25T07:29:42.784Z,76.01
2024-01-25T07:30:42.841Z,75.11
2024-01-25T07:31:42.848Z,75.94
2024-01-25T07:32:42.735Z,74.21
2024-01-25T07:33:42.902Z,74.53
2024-01-25T07:34:42.768Z,75.08
2024-01-25T07:35:42.674Z,76.96
2024-01-25T07:36:42.727Z,76.63
2024-01-25T07:37:42.635Z,76.51
2024-01-25T07:38:42.618Z,74.17
2024-01-25T07:39:42.689Z,76.85
2024-01-25T07:40:42.600Z,75.07
2024-01-25T07:41:42.668Z,74.50
2024-01-25T07:42:42.601Z,74.38
2024-01-25T07:43:42.599Z,74.81
2024-01-25T07:44:42.563Z,77.07
2024-01-25T07:45:42.509Z,75.73
2024-01-25T07:46:42.519Z,77.20
2024-01-25T07:47:42.502Z,76.11
2024-01-25T07:48:42.494Z,75.70
2024-01-25T07:49:42.521Z,76.51
2024-01-25T07:50:42.559Z,73.93
2024-01-25T07:51:42.475Z,75.50
2024-01-25T07:52:42.332Z,73.78
2024-01-25T07:53:42.368Z,73.13
2024-01-25T07:54:43.327Z,75.08
2024-01-25T07:55:42.323Z,75.90
2024-01-25T07:56:43.274Z,74.64
2024-01-25T07:57:42.256Z,73.37
2024-01-25T07:58:42.267Z,75.72
2024-01-25T07:59:42.240Z,74.48
2024-01-25T08:00:42.287Z,75.04
2024-01-25T08:01:42.305Z,73.79
2024-01-25T08:02:42.181Z,73.84
2024-01-25T08:03:42.249Z,75.18
2024-01-25T08:04:42.512Z,74.75
2024-01-25T08:05:48.089Z,73.21
2024-01-25T08:06:43.279Z,75.87
2024-01-25T08:07:42.331Z,75.11
2024-01-25T08:08:42.069Z,72.97
2024-01-25T08:09:42.150Z,74.22
2024-01-25T08:10:42.084Z,75.14
2024-01-25T08:11:42.018Z,75.91
2024-01-25T08:12:48.370Z,77.28
2024-01-25T08:13:44.049Z,75.70
2024-01-25T08:14:42.144Z,73.82
2024-01-25T08:15:42.052Z,74.84
2024-01-25T08:16:41.981Z,74.49
2024-01-25T08:17:42.086Z,76.36
2024-01-25T08:18:42.059Z,74.93
2024-01-25T08:19:42.009Z,75.92
2024-01-25T08:20:41.977Z,75.31
2024-01-25T08:21:41.991Z,73.37
2024-01-25T08:22:41.871Z,72.93
2024-01-25T08:23:43.482Z,75.14
2024-01-25T08:24:41.845Z,74.72
2024-01-25T08:25:41.865Z,74.32
2024-01-25T08:26:41.750Z,74.21
2024-01-25T08:27:41.842Z,74.97
2024-01-25T08:28:41.759Z,76.23
2024-01-25T08:29:41.707Z,75.52
2024-01-25T08:30:41.744Z,76.81
2024-01-25T08:31:41.870Z,74.97
2024-01-25T08:32:41.684Z,74.15
2024-01-25T08:33:41.886Z,74.90
2024-01-25T08:34:41.792Z,74.93
2024-01-25T08:35:41.765Z,75.13
2024-01-25T08:36:41.784Z,76.24
2024-01-25T08:37:41.556Z,76.45
2024-01-25T08:38:41.565Z,76.61
2024-01-25T08:39:41.581Z,74.38
2024-01-25T08:40:41.581Z,75.99
2024-01-25T08:41:42.156Z,77.91
2024-01-25T08:42:42.570Z,75.33
2024-01-25T08:43:41.527Z,75.15
2024-01-25T08:44:41.441Z,74.57
2024-01-25T08:45:41.486Z,74.63
2024-01-25T08:46:41.469Z,74.76
2024-01-25T08:47:41.422Z,74.94
2024-01-25T08:48:41.547Z,74.62
2024-01-25T08:49:41.449Z,76.25
2024-01-25T08:50:41.445Z,74.22
2024-01-25T08:51:41.338Z,75.50
2024-01-25T08:52:41.316Z,73.76
2024-01-25T08:53:41.301Z,75.04
2024-01-25T08:54:41.306Z,73.91
2024-01-25T08:55:41.314Z,72.84
2024-01-25T08:56:41.233Z,74.67
2024-01-25T08:57:41.303Z,76.25
2024-01-25T08:58:41.296Z,75.03
2024-01-25T08:59:41.214Z,74.67
2024-01-25T09:00:41.340Z,72.67
2024-01-25T09:01:41.322Z,73.85
2024-01-25T09:02:41.107Z,75.85
2024-01-25T09:03:41.580Z,73.96
2024-01-25T09:04:41.231Z,74.72
2024-01-25T09:05:41.220Z,74.24
2024-01-25T09:06:41.211Z,74.86
2024-01-25T09:07:41.133Z,75.97
2024-01-25T09:08:41.041Z,76.38
2024-01-25T09:09:41.194Z,73.54
2024-01-25T09:10:41.084Z,74.80
2024-01-25T09:11:40.972Z,74.86
2024-01-25T09:12:41.025Z,73.75
2024-01-25T09:13:45.768Z,74.41
2024-01-25T09:14:41.935Z,76.15
2024-01-25T09:15:40.957Z,74.46
2024-01-25T09:16:40.967Z,75.84
2024-01-25T09:17:41.091Z,75.14
2024-01-25T09:18:40.969Z,75.63
2024-01-25T09:19:40.877Z,75.19
2024-01-25T09:20:40.858Z,74.07
2024-01-25T09:21:40.872Z,75.08
2024-01-25T09:22:40.842Z,75.21
2024-01-25T09:23:40.788Z,76.12
2024-01-25T09:24:40.754Z,75.26
2024-01-25T09:25:40.752Z,73.26
2024-01-25T09:26:40.733Z,74.87
2024-01-25T09:27:40.858Z,75.57
2024-01-25T09:28:40.736Z,75.33
2024-01-25T09:29:40.659Z,72.80
2024-01-25T09:30:40.750Z,74.53
2024-01-25T09:31:40.786Z,75.60
2024-01-25T09:32:40.783Z,73.82
2024-01-25T09:33:40.718Z,73.44
2024-01-25T09:34:41.544Z,74.87
2024-01-25T09:35:40.924Z,75.37
2024-01-25T09:36:40.599Z,73.99
2024-01-25T09:37:40.654Z,74.71
2024-01-25T09:38:40.509Z,74.23
2024-01-25T09:39:40.584Z,75.49
2024-01-25T09:40:40.533Z,73.00
2024-01-25T09:41:40.453Z,74.02
2024-01-25T09:42:41.602Z,74.66
2024-01-25T09:43:40.457Z,76.62
2024-01-25T09:44:40.415Z,74.18
2024-01-25T09:45:40.437Z,74.19
2024-01-25T09:46:40.401Z,75.06
2024-01-25T09:47:40.495Z,74.81
2024-01-25T09:48:40.494Z,73.95
2024-01-25T09:49:40.465Z,74.31
2024-01-25T09:50:40.418Z,75.45
2024-01-25T09:51:40.329Z,76.21
2024-01-25T09:52:40.300Z,73.31
2024-01-25T09:53:40.313Z,75.87
2024-01-25T09:54:40.311Z,75.38
2024-01-25T09:55:40.850Z,74.76
2024-01-25T09:56:40.221Z,74.43
2024-01-25T09:57:40.278Z,74.16
2024-01-25T09:58:40.175Z,76.19
2024-01-25T09:59:40.183Z,74.60
2024-01-25T10:00:40.218Z,77.66
2024-01-25T10:01:40.273Z,73.89
2024-01-25T10:02:40.222Z,75.22
2024-01-25T10:03:40.129Z,74.92
2024-01-25T10:04:40.179Z,75.44
2024-01-25T10:05:40.205Z,74.04
2024-01-25T10:06:40.255Z,73.63
2024-01-25T10:07:40.275Z,75.56
2024-01-25T10:08:40.028Z,74.85
2024-01-25T10:09:40.027Z,75.94
2024-01-25T10:10:40.035Z,73.61
2024-01-25T10:11:43.086Z,75.75
2024-01-25T10:12:40.982Z,76.66
2024-01-25T10:13:39.951Z,74.86
2024-01-25T10:14:39.898Z,74.25
2024-01-25T10:15:39.964Z,73.75
2024-01-25T10:16:39.946Z,73.01
2024-01-25T10:17:58.849Z,74.44
2024-01-25T10:18:42.079Z,75.09
2024-01-25T10:19:40.023Z,76.31
2024-01-25T10:20:40.951Z,75.95
2024-01-25T10:21:40.088Z,74.65
2024-01-25T10:22:39.890Z,75.91
2024-01-25T10:23:39.894Z,76.43
2024-01-25T10:24:39.894Z,75.10
2024-01-25T10:25:39.748Z,76.50
2024-01-25T10:26:39.744Z,74.68
2024-01-25T10:27:39.755Z,73.40
2024-01-25T10:28:39.799Z,74.46
2024-01-25T10:29:39.718Z,74.39
2024-01-25T10:30:39.679Z,74.49
2024-01-25T10:31:39.737Z,76.77
2024-01-25T10:32:39.617Z,75.25
2024-01-25T10:33:39.862Z,74.65
2024-01-25T10:34:39.624Z,75.57
2024-01-25T10:35:39.670Z,75.04
2024-01-25T10:36:39.552Z,75.44
2024-01-25T10:37:39.577Z,75.42
2024-01-25T10:38:39.756Z,75.10
2024-01-25T10:39:39.525Z,73.98
2024-01-25T10:40:39.625Z,75.36
2024-01-25T10:41:39.440Z,73.54
2024-01-25T10:42:39.485Z,75.46
2024-01-25T10:43:39.476Z,75.61
2024-01-25T10:44:39.380Z,74.34
2024-01-25T10:45:39.439Z,76.32
2024-01-25T10:46:39.527Z,76.50
2024-01-25T10:47:40.404Z,76.20
2024-01-25T10:48:39.437Z,74.48
2024-01-25T10:49:39.406Z,76.51
2024-01-25T10:50:39.375Z,75.71
2024-01-25T10:51:39.316Z,73.95
2024-01-25T10:52:39.334Z,73.08
2024-01-25T10:53:39.305Z,74.75
2024-01-25T10:54:39.278Z,74.89
2024-01-25T10:55:39.276Z,76.10
2024-01-25T10:56:39.199Z,74.61
2024-01-25T10:57:39.283Z,74.79
2024-01-25T10:58:39.277Z,75.14
2024-01-25T10:59:39.131Z,75.25
2024-01-25T11:00:39.190Z,75.38
2024-01-25T11:01:39.232Z,74.78
2024-01-25T11:02:39.294Z,76.21
2024-01-25T11:03:39.200Z,75.96
2024-01-25T11:04:39.234Z,75.05
2024-01-25T11:05:39.268Z,76.37
2024-01-25T11:06:39.197Z,73.82
2024-01-25T11:07:39.067Z,75.21
2024-01-25T11:08:38.995Z,74.78
2024-01-25T11:09:39.027Z,72.50
2024-01-25T11:10:39.119Z,75.37
2024-01-25T11:11:38.948Z,74.23
2024-01-25T11:12:38.987Z,74.32
2024-01-25T11:13:38.949Z,72.62
2024-01-25T11:14:38.906Z,74.26
2024-01-25T11:15:38.928Z,75.63
2024-01-25T11:16:38.883Z,76.03
2024-01-25T11:17:38.851Z,74.61
2024-01-25T11:18:38.948Z,75.24
2024-01-25T11:19:38.947Z,75.67
2024-01-25T11:20:39.067Z,76.20
2024-01-25T11:21:38.828Z,75.48
2024-01-25T11:22:38.790Z,73.32
2024-01-25T11:23:38.744Z,73.31
2024-01-25T11:24:38.784Z,75.21
2024-01-25T11:25:38.740Z,76.31
2024-01-25T11:26:38.733Z,76.75
2024-01-25T11:27:38.693Z,75.61
2024-01-25T11:28:38.715Z,73.62
2024-01-25T11:29:40.601Z,75.28
2024-01-25T11:30:38.888Z,75.39
2024-01-25T11:31:38.820Z,73.70
2024-01-25T11:32:38.611Z,73.89
2024-01-25T11:33:38.688Z,75.03
2024-01-25T11:34:38.666Z,73.83
2024-01-25T11:35:38.765Z,75.39
2024-01-25T11:36:38.559Z,74.69
2024-01-25T11:37:38.567Z,72.98
2024-01-25T11:38:38.491Z,75.19
2024-01-25T11:39:38.509Z,74.82
2024-01-25T11:40:38.579Z,73.59
2024-01-25T11:41:38.426Z,75.20
2024-01-25T11:42:38.485Z,73.24
2024-01-25T11:43:38.433Z,74.00
2024-01-25T11:44:38.382Z,73.65
2024-01-25T11:45:38.401Z,74.02
2024-01-25T11:46:38.910Z,74.23
2024-01-25T11:47:38.380Z,75.06
2024-01-25T11:48:38.387Z,75.04
2024-01-25T11:49:38.492Z,76.28
2024-01-25T11:50:38.346Z,75.20
2024-01-25T11:51:38.408Z,74.70
2024-01-25T11:52:38.521Z,73.88
2024-01-25T11:53:38.386Z,75.10
2024-01-25T11:54:38.223Z,74.22
2024-01-25T11:55:38.246Z,75.59
2024-01-25T11:56:38.168Z,74.57
2024-01-25T11:57:38.185Z,74.34
2024-01-25T11:58:41.530Z,71.59
2024-01-25T11:59:38.288Z,73.93
2024-01-25T12:00:38.317Z,74.12
2024-01-25T12:01:38.345Z,74.77
2024-01-25T12:02:38.337Z,73.89
2024-01-25T12:03:38.120Z,74.22
2024-01-25T12:04:38.458Z,73.91
2024-01-25T12:05:38.185Z,72.87
2024-01-25T12:06:38.628Z,74.22
2024-01-25T12:07:38.109Z,74.79
2024-01-25T12:08:37.967Z,73.47
2024-01-25T12:09:38.014Z,74.20
2024-01-25T12:10:38.022Z,71.17
2024-01-25T12:11:37.991Z,76.48
2024-01-25T12:12:38.081Z,75.35
2024-01-25T12:13:37.962Z,75.31
2024-01-25T12:14:37.879Z,74.24
2024-01-25T12:15:37.964Z,75.00
2024-01-25T12:16:38.953Z,75.74
2024-01-25T12:17:38.027Z,75.52
2024-01-25T12:18:38.077Z,75.37
2024-01-25T12:19:38.047Z,73.98
2024-01-25T12:20:37.933Z,75.33
2024-01-25T12:21:38.160Z,74.46
2024-01-25T12:22:38.558Z,74.69
2024-01-25T12:23:38.698Z,73.81
2024-01-25T12:24:39.155Z,73.44
2024-01-25T12:25:37.706Z,74.33
2024-01-25T12:26:37.680Z,75.50
2024-01-25T12:27:37.678Z,73.71
2024-01-25T12:28:37.835Z,74.03
2024-01-25T12:29:37.602Z,75.52
2024-01-25T12:30:37.688Z,71.84
2024-01-25T12:31:37.773Z,74.86
2024-01-25T12:32:37.645Z,74.43
2024-01-25T12:33:37.972Z,75.35
2024-01-25T12:34:38.484Z,75.73
2024-01-25T12:35:38.799Z,74.05
2024-01-25T12:36:37.643Z,73.72
2024-01-25T12:37:37.676Z,74.86
2024-01-25T12:38:37.483Z,73.65
2024-01-25T12:39:37.473Z,73.54
2024-01-25T12:40:37.486Z,75.23
2024-01-25T12:41:37.475Z,75.02
2024-01-25T12:42:37.534Z,72.99
2024-01-25T12:43:37.525Z,73.34
2024-01-25T12:44:37.491Z,75.03
2024-01-25T12:45:37.388Z,73.32
2024-01-25T12:46:38.405Z,74.48
2024-01-25T12:47:37.502Z,73.99
2024-01-25T12:48:37.381Z,73.14
2024-01-25T12:49:37.274Z,75.91
2024-01-25T12:50:37.258Z,74.06
2024-01-25T12:51:37.279Z,71.74
2024-01-25T12:52:37.220Z,73.49